createdAt,value
2018-09-04T00:00:00.253Z,43.20
2018-09-04T00:02:29.527Z,38.47
2018-09-04T00:04:58.664Z,39.40
2018-09-04T00:07:27.785Z,43.67
2018-09-04T00:09:56.940Z,40.73
2018-09-04T00:12:26.137Z,38.90
2018-09-04T00:14:55.249Z,42.03
2018-09-04T00:17:24.412Z,41.07
2018-09-04T00:19:53.625Z,38.00
2018-09-04T00:22:22.736Z,38.37
2018-09-04T00:24:51.923Z,42.03
2018-09-04T00:27:21.114Z,42.90
2018-09-04T00:29:50.204Z,45.13
2018-09-04T00:32:19.356Z,50.33
2018-09-04T00:34:48.499Z,45.97
2018-09-04T00:37:17.682Z,42.00
2018-09-04T00:39:47.130Z,45.97
2018-09-04T00:42:16.316Z,51.13
2018-09-04T00:44:45.578Z,48.80
2018-09-04T00:47:14.700Z,46.57
2018-09-04T00:49:43.840Z,52.50
2018-09-04T00:52:13.142Z,48.23
2018-09-04T00:54:42.219Z,47.67
2018-09-04T00:57:11.386Z,49.97
2018-09-04T00:59:40.534Z,52.83
2018-09-04T01:02:09.927Z,45.37
2018-09-04T01:04:39.161Z,55.57
2018-09-04T01:07:08.279Z,57.30
2018-09-04T01:09:37.512Z,49.63
2018-09-04T01:12:06.661Z,54.50
2018-09-04T01:14:35.873Z,52.50
2018-09-04T01:17:05.285Z,54.77
2018-09-04T01:19:34.453Z,56.80
2018-09-04T01:22:03.681Z,51.60
2018-09-04T01:24:32.824Z,58.43
2018-09-04T01:27:02.077Z,56.73
2018-09-04T01:29:31.209Z,56.40
2018-09-04T01:32:00.363Z,58.63
2018-09-04T01:34:29.485Z,57.23
2018-09-04T01:36:58.604Z,54.83
2018-09-04T01:39:27.712Z,68.53
2018-09-04T01:41:56.893Z,59.70
2018-09-04T01:44:26.049Z,66.90
2018-09-04T01:46:55.245Z,59.17
2018-09-04T01:49:24.376Z,63.17
2018-09-04T01:51:53.548Z,72.40
2018-09-04T01:54:22.672Z,74.47
2018-09-04T01:56:51.900Z,69.40
2018-09-04T01:59:20.988Z,68.30
2018-09-04T02:01:50.208Z,80.13
2018-09-04T02:04:19.389Z,66.87
2018-09-04T02:06:48.520Z,83.57
2018-09-04T02:09:17.704Z,74.90
2018-09-04T02:11:46.899Z,78.13
2018-09-04T02:14:16.210Z,72.27
2018-09-04T02:16:45.441Z,78.93
2018-09-04T02:19:14.557Z,74.30
2018-09-04T02:21:43.794Z,85.90
2018-09-04T02:24:13.090Z,78.00
2018-09-04T02:26:42.292Z,75.90
2018-09-04T02:29:11.469Z,78.27
2018-09-04T02:31:40.570Z,83.13
2018-09-04T02:34:09.784Z,95.07
2018-09-04T02:36:38.981Z,81.73
2018-09-04T02:39:09.674Z,84.83
2018-09-04T02:41:38.863Z,106.10
2018-09-04T02:44:08.044Z,99.30
2018-09-04T02:46:37.451Z,87.63
2018-09-04T02:49:07.000Z,86.80
2018-09-04T02:51:36.576Z,87.87
2018-09-04T02:54:06.043Z,90.87
2018-09-04T02:56:35.158Z,86.20
2018-09-04T02:59:04.346Z,99.07
2018-09-04T03:01:33.568Z,103.53
2018-09-04T03:04:02.773Z,97.90
2018-09-04T03:06:31.910Z,94.83
2018-09-04T03:09:01.043Z,109.70
2018-09-04T03:11:30.213Z,100.50
2018-09-04T03:13:59.404Z,118.30
2018-09-04T03:16:28.485Z,110.20
2018-09-04T03:18:57.605Z,118.63
2018-09-04T03:21:26.748Z,112.97
2018-09-04T03:23:55.956Z,111.73
2018-09-04T03:26:25.141Z,107.47
2018-09-04T03:28:54.268Z,91.53
2018-09-04T03:31:23.457Z,106.60
2018-09-04T03:33:52.586Z,118.33
2018-09-04T03:36:21.792Z,122.23
2018-09-04T03:38:50.900Z,114.07
2018-09-04T03:41:20.028Z,110.90
2018-09-04T03:43:49.126Z,124.13
2018-09-04T03:46:18.275Z,126.73
2018-09-04T03:48:47.449Z,120.33
2018-09-04T03:51:16.576Z,136.73
2018-09-04T03:53:45.752Z,128.77
2018-09-04T03:56:14.857Z,120.23
2018-09-04T03:58:44.003Z,122.57
2018-09-04T04:01:13.159Z,115.23
2018-09-04T04:03:42.424Z,131.33
2018-09-04T04:06:11.548Z,129.37
2018-09-04T04:08:40.687Z,122.10
2018-09-04T04:11:10.031Z,106.83
2018-09-04T04:13:39.220Z,111.17
2018-09-04T04:16:08.413Z,109.23
2018-09-04T04:18:37.723Z,105.17
2018-09-04T04:21:06.887Z,110.50
2018-09-04T04:23:36.059Z,113.10
2018-09-04T04:26:05.210Z,122.43
2018-09-04T04:28:34.331Z,121.40
2018-09-04T04:31:03.537Z,119.87
2018-09-04T04:33:32.709Z,106.27
2018-09-04T04:36:01.833Z,121.03
2018-09-04T04:38:31.079Z,115.57
2018-09-04T04:41:00.240Z,122.90
2018-09-04T04:43:29.400Z,133.63
2018-09-04T04:45:58.537Z,118.47
2018-09-04T04:48:27.697Z,116.10
2018-09-04T04:50:56.864Z,107.77
2018-09-04T04:53:26.025Z,105.37
2018-09-04T04:55:55.165Z,109.87
2018-09-04T04:58:24.488Z,110.47
2018-09-04T05:00:53.672Z,127.10
2018-09-04T05:03:22.789Z,124.60
2018-09-04T05:05:51.970Z,94.70
2018-09-04T05:08:21.080Z,97.93
2018-09-04T05:10:50.200Z,111.90
2018-09-04T05:13:19.472Z,94.23
2018-09-04T05:15:48.741Z,102.27
2018-09-04T05:18:17.987Z,108.53
2018-09-04T05:20:47.140Z,118.50
2018-09-04T05:23:16.529Z,111.30
2018-09-04T05:25:45.761Z,109.40
2018-09-04T05:28:14.888Z,106.60
2018-09-04T05:30:44.099Z,114.83
2018-09-04T05:33:15.652Z,98.90
2018-09-04T05:35:53.164Z,89.70
2018-09-04T05:38:22.901Z,105.23
2018-09-04T05:40:52.119Z,90.40
2018-09-04T05:43:27.851Z,95.67
2018-09-04T05:45:59.009Z,92.60
2018-09-04T05:48:28.188Z,95.70
2018-09-04T05:50:57.384Z,81.40
2018-09-04T05:53:26.535Z,88.53
2018-09-04T05:55:55.894Z,98.90
2018-09-04T05:58:25.226Z,91.80
2018-09-04T06:00:57.942Z,83.90
2018-09-04T06:03:28.070Z,97.20
2018-09-04T06:05:57.311Z,94.13
2018-09-04T06:08:26.572Z,98.10
2018-09-04T06:10:55.692Z,93.80
2018-09-04T06:13:24.908Z,85.87
2018-09-04T06:15:54.275Z,83.93
2018-09-04T06:18:23.474Z,84.83
2018-09-04T06:20:52.596Z,71.10
2018-09-04T06:23:21.766Z,79.97
2018-09-04T06:25:50.898Z,85.60
2018-09-04T06:28:20.026Z,78.57
2018-09-04T06:30:49.169Z,80.43
2018-09-04T06:33:18.372Z,73.63
2018-09-04T06:35:48.564Z,71.43
2018-09-04T06:38:17.786Z,81.27
2018-09-04T06:40:46.912Z,75.90
2018-09-04T06:43:16.174Z,82.93
2018-09-04T06:45:45.346Z,79.63
2018-09-04T06:48:14.452Z,72.90
2018-09-04T06:50:43.751Z,78.20
2018-09-04T06:53:12.913Z,72.67
2018-09-04T06:55:42.134Z,78.90
2018-09-04T06:58:11.356Z,85.20
2018-09-04T07:00:40.532Z,85.53
2018-09-04T07:03:09.655Z,82.77
2018-09-04T07:05:38.831Z,88.77
2018-09-04T07:08:08.047Z,81.37
2018-09-04T07:10:37.175Z,76.17
2018-09-04T07:13:06.519Z,76.53
2018-09-04T07:15:35.823Z,77.63
2018-09-04T07:18:05.453Z,89.07
2018-09-04T07:20:34.725Z,73.07
2018-09-04T07:23:03.847Z,72.90
2018-09-04T07:25:32.989Z,80.30
2018-09-04T07:28:02.141Z,81.70
2018-09-04T07:30:31.274Z,84.80
2018-09-04T07:33:00.377Z,69.87
2018-09-04T07:35:29.497Z,84.97
2018-09-04T07:37:58.616Z,83.43
2018-09-04T07:40:27.728Z,76.67
2018-09-04T07:42:57.012Z,78.80
2018-09-04T07:45:26.135Z,79.90
2018-09-04T07:47:55.312Z,78.87
2018-09-04T07:50:24.409Z,84.50
2018-09-04T07:52:53.550Z,90.47
2018-09-04T07:55:22.659Z,91.73
2018-09-04T07:57:51.870Z,77.73
2018-09-04T08:00:20.986Z,81.97
2018-09-04T08:02:50.150Z,84.10
2018-09-04T08:05:19.278Z,74.83
2018-09-04T08:07:48.389Z,78.10
2018-09-04T08:10:17.787Z,87.70
2018-09-04T08:12:46.872Z,80.17
2018-09-04T08:15:16.014Z,76.20
2018-09-04T08:17:45.185Z,91.33
2018-09-04T08:20:14.327Z,72.57
2018-09-04T08:22:43.457Z,70.37
2018-09-04T08:25:12.562Z,64.40
2018-09-04T08:27:41.697Z,68.80
2018-09-04T08:30:10.797Z,62.87
2018-09-04T08:32:39.967Z,58.60
2018-09-04T08:35:09.160Z,62.57
2018-09-04T08:37:38.348Z,61.43
2018-09-04T08:40:07.488Z,72.07
2018-09-04T08:42:36.784Z,70.77
2018-09-04T08:45:05.893Z,60.90
2018-09-04T08:47:35.013Z,71.00
2018-09-04T08:50:04.229Z,64.37
2018-09-04T08:52:33.444Z,66.53
2018-09-04T08:55:02.660Z,64.77
2018-09-04T08:57:31.811Z,71.57
2018-09-04T09:00:01.033Z,72.13
2018-09-04T09:02:30.157Z,72.30
2018-09-04T09:04:59.315Z,85.37
2018-09-04T09:07:28.519Z,70.90
2018-09-04T09:09:57.680Z,80.43
2018-09-04T09:12:26.776Z,90.10
2018-09-04T09:14:55.860Z,76.97
2018-09-04T09:17:24.964Z,62.13
2018-09-04T09:19:54.504Z,65.10
2018-09-04T09:22:23.617Z,69.57
2018-09-04T09:24:52.788Z,61.43
2018-09-04T09:27:21.909Z,77.30
2018-09-04T09:29:51.073Z,60.63
2018-09-04T09:32:20.200Z,61.07
2018-09-04T09:34:49.395Z,64.73
2018-09-04T09:37:18.572Z,58.03
2018-09-04T09:39:47.779Z,48.90
2018-09-04T09:42:17.078Z,52.77
2018-09-04T09:44:46.347Z,48.97
2018-09-04T09:47:15.575Z,46.50
2018-09-04T09:49:44.742Z,43.50
2018-09-04T09:52:13.835Z,42.53
2018-09-04T09:54:43.012Z,45.33
2018-09-04T09:57:12.161Z,32.00
2018-09-04T09:59:41.722Z,33.40
2018-09-04T10:02:17.146Z,26.03
2018-09-04T10:04:46.299Z,23.40
2018-09-04T10:07:15.574Z,26.77
2018-09-04T10:09:44.732Z,24.00
2018-09-04T10:12:13.888Z,19.70
2018-09-04T10:14:43.012Z,18.17
2018-09-04T10:17:12.262Z,20.20
2018-09-04T10:19:41.439Z,18.07
2018-09-04T10:22:10.491Z,21.80
2018-09-04T10:24:39.754Z,22.93
2018-09-04T10:27:08.858Z,24.20
2018-09-04T10:29:38.047Z,26.00
2018-09-04T10:32:07.158Z,23.57
2018-09-04T10:34:36.339Z,23.33
2018-09-04T10:37:05.483Z,27.47
2018-09-04T10:39:39.980Z,22.60
2018-09-04T10:42:09.221Z,25.07
2018-09-04T10:44:38.368Z,26.33
2018-09-04T10:47:07.583Z,30.73
2018-09-04T10:49:36.759Z,22.33
2018-09-04T10:52:06.045Z,27.70
2018-09-04T10:54:35.188Z,30.90
2018-09-04T10:57:04.360Z,31.10
2018-09-04T10:59:33.473Z,31.40
2018-09-04T11:02:02.684Z,23.53
2018-09-04T11:04:31.857Z,27.37
2018-09-04T11:07:00.976Z,28.40
2018-09-04T11:09:30.168Z,28.10
2018-09-04T11:11:59.286Z,29.10
2018-09-04T11:14:28.433Z,28.10
2018-09-04T11:16:57.655Z,35.03
2018-09-04T11:19:26.915Z,26.43
2018-09-04T11:21:56.029Z,28.60
2018-09-04T11:24:25.246Z,33.73
2018-09-04T11:26:54.346Z,35.40
2018-09-04T11:29:23.499Z,38.33
2018-09-04T11:31:52.801Z,36.50
2018-09-04T11:34:21.917Z,35.23
2018-09-04T11:36:51.093Z,37.37
2018-09-04T11:39:20.395Z,41.00
2018-09-04T11:41:49.487Z,39.00
2018-09-04T11:44:18.658Z,36.93
2018-09-04T11:46:47.823Z,42.83
2018-09-04T11:49:16.982Z,42.53
2018-09-04T11:51:46.090Z,48.13
2018-09-04T11:54:15.273Z,52.00
2018-09-04T11:56:44.381Z,47.20
2018-09-04T11:59:13.492Z,54.07
2018-09-04T12:01:46.337Z,61.47
2018-09-04T12:04:15.543Z,65.13
2018-09-04T12:06:44.871Z,53.33
2018-09-04T12:09:14.229Z,64.67
2018-09-04T12:11:47.641Z,60.30
2018-09-04T12:14:16.762Z,69.77
2018-09-04T12:16:45.955Z,61.27
2018-09-04T12:19:15.111Z,62.10
2018-09-04T12:21:44.227Z,71.70
2018-09-04T12:24:13.395Z,59.27
2018-09-04T12:26:42.545Z,60.73
2018-09-04T12:29:11.719Z,60.63
2018-09-04T12:31:40.829Z,60.60
2018-09-04T12:34:09.956Z,58.50
2018-09-04T12:36:39.137Z,65.10
2018-09-04T12:39:08.200Z,59.73
2018-09-04T12:41:37.316Z,65.97
2018-09-04T12:44:06.495Z,67.10
2018-09-04T12:46:35.588Z,65.90
2018-09-04T12:49:04.910Z,63.63
2018-09-04T12:51:34.192Z,65.20
2018-09-04T12:54:03.320Z,70.50
2018-09-04T12:56:32.601Z,64.87
2018-09-04T12:59:01.915Z,81.33
2018-09-04T13:01:31.026Z,69.80
2018-09-04T13:04:00.152Z,61.60
2018-09-04T13:06:29.256Z,63.07
2018-09-04T13:08:58.449Z,58.63
2018-09-04T13:11:27.537Z,59.10
2018-09-04T13:13:56.762Z,55.13
2018-09-04T13:16:25.876Z,54.40
2018-09-04T13:18:54.978Z,55.00
2018-09-04T13:21:24.106Z,49.53
2018-09-04T13:23:53.212Z,47.13
2018-09-04T13:26:22.352Z,43.63
2018-09-04T13:28:51.540Z,39.83
2018-09-04T13:31:20.658Z,39.30
2018-09-04T13:33:49.839Z,41.23
2018-09-04T13:36:18.963Z,43.90
2018-09-04T13:38:48.100Z,41.43
2018-09-04T13:41:17.237Z,37.53
2018-09-04T13:43:46.377Z,42.93
2018-09-04T13:46:15.542Z,42.03
2018-09-04T13:48:44.784Z,50.20
2018-09-04T13:51:14.229Z,38.97
2018-09-04T13:53:43.411Z,37.30
2018-09-04T13:56:12.519Z,39.97
2018-09-04T13:58:41.631Z,40.03
2018-09-04T14:01:10.928Z,37.30
2018-09-04T14:03:40.009Z,39.50
2018-09-04T14:06:09.125Z,37.63
2018-09-04T14:08:38.213Z,28.70
2018-09-04T14:11:07.434Z,32.87
2018-09-04T14:13:37.617Z,37.57
2018-09-04T14:16:08.863Z,33.13
2018-09-04T14:18:38.213Z,34.40
2018-09-04T14:21:07.407Z,34.37
2018-09-04T14:23:36.765Z,33.00
2018-09-04T14:26:05.997Z,28.67
2018-09-04T14:28:42.149Z,33.13
2018-09-04T14:31:04.664Z,29.87
2018-09-04T14:33:34.116Z,28.40
2018-09-04T14:36:03.235Z,28.33
2018-09-04T14:38:32.370Z,26.20
2018-09-04T14:41:01.596Z,25.30
2018-09-04T14:43:30.735Z,24.87
2018-09-04T14:45:59.842Z,24.90
2018-09-04T14:48:29.068Z,29.23
2018-09-04T14:50:58.191Z,29.00
2018-09-04T14:53:27.336Z,23.23
2018-09-04T14:55:56.832Z,26.63
2018-09-04T14:58:25.948Z,26.00
2018-09-04T15:00:55.140Z,25.27
2018-09-04T15:03:24.552Z,24.93
2018-09-04T15:05:53.640Z,25.73
2018-09-04T15:08:22.751Z,21.77
2018-09-04T15:10:52.224Z,23.20
2018-09-04T15:13:21.313Z,24.60
2018-09-04T15:15:50.428Z,21.90
2018-09-04T15:18:19.550Z,23.47
2018-09-04T15:20:48.636Z,21.83
2018-09-04T15:23:17.728Z,21.23
2018-09-04T15:25:46.930Z,24.83
2018-09-04T15:28:16.402Z,23.37
2018-09-04T15:30:45.528Z,20.70
2018-09-04T15:33:14.723Z,22.10
2018-09-04T15:35:44.000Z,19.20
2018-09-04T15:38:13.059Z,20.63
2018-09-04T15:40:42.248Z,21.60
2018-09-04T15:43:11.429Z,21.07
2018-09-04T15:45:40.543Z,27.40
2018-09-04T15:48:09.665Z,23.53
2018-09-04T15:50:38.790Z,20.90
2018-09-04T15:53:07.972Z,20.43
2018-09-04T15:55:37.086Z,20.43
2018-09-04T15:58:06.283Z,19.67
2018-09-04T16:00:35.561Z,16.60
2018-09-04T16:03:04.802Z,20.07
2018-09-04T16:05:33.922Z,13.50
2018-09-04T16:08:04.087Z,16.63
2018-09-04T16:10:33.308Z,17.13
2018-09-04T16:13:02.483Z,18.10
2018-09-04T16:15:31.703Z,21.40
2018-09-04T16:18:00.872Z,19.60
2018-09-04T16:20:29.984Z,21.10
2018-09-04T16:22:59.100Z,18.90
2018-09-04T16:25:28.288Z,20.70
2018-09-04T16:27:57.456Z,17.03
2018-09-04T16:30:26.570Z,19.70
2018-09-04T16:32:55.950Z,17.50
2018-09-04T16:35:25.102Z,16.10
2018-09-04T16:37:54.248Z,16.37
2018-09-04T16:40:23.438Z,18.37
2018-09-04T16:42:52.551Z,17.73
2018-09-04T16:45:21.769Z,18.30
2018-09-04T16:47:50.879Z,18.53
2018-09-04T16:50:20.086Z,18.80
2018-09-04T16:52:49.225Z,24.13
2018-09-04T16:55:18.344Z,25.17
2018-09-04T16:57:47.529Z,19.50
2018-09-04T17:00:16.713Z,14.67
2018-09-04T17:02:45.852Z,17.33
2018-09-04T17:05:15.112Z,14.70
2018-09-04T17:07:44.461Z,18.77
2018-09-04T17:10:13.714Z,17.27
2018-09-04T17:12:42.830Z,16.57
2018-09-04T17:15:12.257Z,17.53
2018-09-04T17:17:41.430Z,19.90
2018-09-04T17:20:10.517Z,17.90
2018-09-04T17:22:39.729Z,17.63
2018-09-04T17:25:08.925Z,20.40
2018-09-04T17:27:38.141Z,19.40
2018-09-04T17:30:07.312Z,20.23
2018-09-04T17:32:36.534Z,17.43
2018-09-04T17:35:05.933Z,18.20
2018-09-04T17:37:35.123Z,21.10
2018-09-04T17:40:04.381Z,22.67
2018-09-04T17:42:33.508Z,20.93
2018-09-04T17:45:02.722Z,23.07
2018-09-04T17:47:32.890Z,24.07
2018-09-04T17:50:02.016Z,22.50
2018-09-04T17:52:31.224Z,23.10
2018-09-04T17:55:00.361Z,27.30
2018-09-04T17:57:29.590Z,25.07
2018-09-04T17:59:59.017Z,28.13
2018-09-04T18:02:28.247Z,28.00
2018-09-04T18:04:57.324Z,30.10
2018-09-04T18:07:26.448Z,29.10
2018-09-04T18:09:55.819Z,36.47
2018-09-04T18:12:24.992Z,35.60
2018-09-04T18:14:54.203Z,32.03
2018-09-04T18:17:23.320Z,28.17
2018-09-04T18:19:52.749Z,33.90
2018-09-04T18:22:21.893Z,35.10
2018-09-04T18:24:51.033Z,36.03
2018-09-04T18:27:20.183Z,34.47
2018-09-04T18:29:49.287Z,34.77
2018-09-04T18:32:18.505Z,34.80
2018-09-04T18:34:47.669Z,33.60
2018-09-04T18:37:16.853Z,33.93
2018-09-04T18:39:45.956Z,30.67
2018-09-04T18:42:15.147Z,35.50
2018-09-04T18:44:44.247Z,36.50
2018-09-04T18:47:13.408Z,33.70
2018-09-04T18:49:42.637Z,37.13
2018-09-04T18:52:11.751Z,38.50
2018-09-04T18:54:40.977Z,37.20
2018-09-04T18:57:10.083Z,32.90
2018-09-04T18:59:39.387Z,34.87
2018-09-04T19:02:08.563Z,37.40
2018-09-04T19:04:37.736Z,33.10
2018-09-04T19:07:06.939Z,38.57
2018-09-04T19:09:36.219Z,34.57
2018-09-04T19:12:05.455Z,42.37
2018-09-04T19:14:34.568Z,39.73
2018-09-04T19:17:03.815Z,36.43
2018-09-04T19:19:32.920Z,40.73
2018-09-04T19:22:02.144Z,39.90
2018-09-04T19:24:31.280Z,41.83
2018-09-04T19:27:00.396Z,43.67
2018-09-04T19:29:29.507Z,44.53
2018-09-04T19:31:58.736Z,41.90
2018-09-04T19:34:27.871Z,42.00
2018-09-04T19:36:56.969Z,44.70
2018-09-04T19:39:26.122Z,43.63
2018-09-04T19:41:55.296Z,44.67
2018-09-04T19:44:24.492Z,52.93
2018-09-04T19:46:53.703Z,50.10
2018-09-04T19:49:22.877Z,46.53
2018-09-04T19:51:51.999Z,93.83
2018-09-04T19:54:21.106Z,56.40
2018-09-04T19:56:50.201Z,47.47
2018-09-04T19:59:19.304Z,47.73
2018-09-04T20:01:48.713Z,44.73
2018-09-04T20:04:17.805Z,41.87
2018-09-04T20:06:46.987Z,44.00
2018-09-04T20:09:16.117Z,41.77
2018-09-04T20:11:45.229Z,45.50
2018-09-04T20:14:14.455Z,44.97
2018-09-04T20:16:44.101Z,45.20
2018-09-04T20:19:13.271Z,44.93
2018-09-04T20:21:42.483Z,45.53
2018-09-04T20:24:11.856Z,46.30
2018-09-04T20:26:40.961Z,45.33
2018-09-04T20:29:10.186Z,46.43
2018-09-04T20:31:39.608Z,41.70
2018-09-04T20:34:08.700Z,49.13
2018-09-04T20:36:37.944Z,47.20
2018-09-04T20:39:07.250Z,43.10
2018-09-04T20:41:36.402Z,42.50
2018-09-04T20:44:05.766Z,39.80
2018-09-04T20:46:35.345Z,39.53
2018-09-04T20:49:04.879Z,41.97
2018-09-04T20:51:34.206Z,41.73
2018-09-04T20:54:03.336Z,43.70
2018-09-04T20:56:32.421Z,39.17
2018-09-04T20:59:12.788Z,41.00
2018-09-04T21:01:53.352Z,42.07
2018-09-04T21:04:33.901Z,35.60
2018-09-04T21:07:01.996Z,42.87
2018-09-04T21:09:39.945Z,35.43
2018-09-04T21:12:09.602Z,36.33
2018-09-04T21:14:38.803Z,37.10
2018-09-04T21:17:07.977Z,39.40
2018-09-04T21:19:37.199Z,38.33
2018-09-04T21:22:06.329Z,36.60
2018-09-04T21:24:35.713Z,216.40
2018-09-04T21:27:05.011Z,294.20
2018-09-04T21:29:34.305Z,49.97
2018-09-04T21:32:03.710Z,38.70
2018-09-04T21:34:33.040Z,36.47
2018-09-04T21:37:38.130Z,33.67
2018-09-04T21:40:07.508Z,38.10
2018-09-04T21:42:36.645Z,35.33
2018-09-04T21:45:05.802Z,33.23
2018-09-04T21:47:35.241Z,33.33
2018-09-04T21:50:04.387Z,32.77
2018-09-04T21:52:33.516Z,30.17
2018-09-04T21:55:03.184Z,35.37
2018-09-04T21:57:32.485Z,26.63
2018-09-04T22:00:01.792Z,33.17
2018-09-04T22:02:30.924Z,28.33
2018-09-04T22:05:00.194Z,33.33
2018-09-04T22:07:29.637Z,31.23
2018-09-04T22:09:58.988Z,569.10
2018-09-04T22:12:28.332Z,48.50
2018-09-04T22:14:57.740Z,35.70
2018-09-04T22:17:26.870Z,31.50
2018-09-04T22:19:56.100Z,34.20
2018-09-04T22:22:25.292Z,30.20
2018-09-04T22:24:54.532Z,27.20
2018-09-04T22:27:23.668Z,30.40
2018-09-04T22:29:52.872Z,28.73
2018-09-04T22:32:21.984Z,28.70
2018-09-04T22:34:51.108Z,31.43
2018-09-04T22:37:20.364Z,30.37
2018-09-04T22:39:49.588Z,34.73
2018-09-04T22:42:18.685Z,25.20
2018-09-04T22:44:47.862Z,30.90
2018-09-04T22:47:17.045Z,28.17
2018-09-04T22:49:51.525Z,30.67
2018-09-04T22:52:24.921Z,31.27
2018-09-04T22:54:57.180Z,25.50
2018-09-04T22:57:26.296Z,28.87
2018-09-04T22:59:55.483Z,28.83
2018-09-04T23:02:24.635Z,34.33
2018-09-04T23:04:53.809Z,27.63
2018-09-04T23:07:22.937Z,26.17
2018-09-04T23:09:52.133Z,25.57
2018-09-04T23:12:21.257Z,27.27
2018-09-04T23:14:50.404Z,27.70
2018-09-04T23:17:19.657Z,30.10
2018-09-04T23:19:49.240Z,27.43
2018-09-04T23:22:18.365Z,28.73
2018-09-04T23:24:47.709Z,28.10
2018-09-04T23:27:16.823Z,29.27
2018-09-04T23:29:45.942Z,25.63
2018-09-04T23:32:15.205Z,27.07
2018-09-04T23:34:44.464Z,25.80
2018-09-04T23:37:13.703Z,28.53
2018-09-04T23:39:42.904Z,33.70
2018-09-04T23:42:12.084Z,34.33
2018-09-04T23:44:41.284Z,30.50
2018-09-04T23:47:10.545Z,27.03
2018-09-04T23:49:39.667Z,28.77
2018-09-04T23:52:08.921Z,30.67
2018-09-04T23:54:38.128Z,23.43
2018-09-04T23:57:07.284Z,27.57
2018-09-04T23:59:36.480Z,24.20
